sensor_id;sensor_type;location;lat;lon;timestamp;P1;durP1;ratioP1;P2;durP2;ratioP2
68765;SDS011;55756;45.582;11.484;2023-04-21T00:00:05;8.70;;;5.38;;
68765;SDS011;55756;45.582;11.484;2023-04-21T00:02:34;8.20;;;4.90;;
68765;SDS011;55756;45.582;11.484;2023-04-21T00:05:06;7.88;;;4.70;;
68765;SDS011;55756;45.582;11.484;2023-04-21T00:07:35;7.70;;;4.53;;
68765;SDS011;55756;45.582;11.484;2023-04-21T00:10:08;7.60;;;3.92;;
68765;SDS011;55756;45.582;11.484;2023-04-21T00:12:34;6.88;;;3.72;;
68765;SDS011;55756;45.582;11.484;2023-04-21T00:15:00;5.88;;;3.33;;
68765;SDS011;55756;45.582;11.484;2023-04-21T00:17:26;5.60;;;3.20;;
68765;SDS011;55756;45.582;11.484;2023-04-21T00:19:52;6.82;;;2.85;;
68765;SDS011;55756;45.582;11.484;2023-04-21T00:22:18;6.03;;;2.88;;
68765;SDS011;55756;45.582;11.484;2023-04-21T00:24:45;5.40;;;2.55;;
68765;SDS011;55756;45.582;11.484;2023-04-21T00:27:11;6.25;;;2.42;;
68765;SDS011;55756;45.582;11.484;2023-04-21T00:29:37;5.30;;;2.40;;
68765;SDS011;55756;45.582;11.484;2023-04-21T00:32:04;4.97;;;2.40;;
68765;SDS011;55756;45.582;11.484;2023-04-21T00:34:34;4.70;;;2.30;;
68765;SDS011;55756;45.582;11.484;2023-04-21T00:37:00;3.83;;;2.22;;
68765;SDS011;55756;45.582;11.484;2023-04-21T00:39:26;3.33;;;1.85;;
68765;SDS011;55756;45.582;11.484;2023-04-21T00:41:51;3.85;;;1.90;;
68765;SDS011;55756;45.582;11.484;2023-04-21T00:44:17;3.22;;;1.75;;
68765;SDS011;55756;45.582;11.484;2023-04-21T00:46:43;3.95;;;2.05;;
68765;SDS011;55756;45.582;11.484;2023-04-21T00:49:09;2.97;;;1.88;;
68765;SDS011;55756;45.582;11.484;2023-04-21T00:51:37;4.18;;;2.28;;
68765;SDS011;55756;45.582;11.484;2023-04-21T00:54:04;4.28;;;2.25;;
68765;SDS011;55756;45.582;11.484;2023-04-21T00:56:32;6.43;;;2.50;;
68765;SDS011;55756;45.582;11.484;2023-04-21T00:58:59;5.80;;;2.40;;
68765;SDS011;55756;45.582;11.484;2023-04-21T01:01:32;5.50;;;2.35;;
68765;SDS011;55756;45.582;11.484;2023-04-21T01:03:58;5.70;;;2.40;;
68765;SDS011;55756;45.582;11.484;2023-04-21T01:06:28;4.43;;;2.22;;
68765;SDS011;55756;45.582;11.484;2023-04-21T01:08:56;4.07;;;2.05;;
68765;SDS011;55756;45.582;11.484;2023-04-21T01:11:22;3.60;;;2.10;;
68765;SDS011;55756;45.582;11.484;2023-04-21T01:13:51;4.18;;;2.10;;
68765;SDS011;55756;45.582;11.484;2023-04-21T01:16:18;4.60;;;2.15;;
68765;SDS011;55756;45.582;11.484;2023-04-21T01:18:45;5.00;;;2.10;;
68765;SDS011;55756;45.582;11.484;2023-04-21T01:21:11;4.10;;;2.10;;
68765;SDS011;55756;45.582;11.484;2023-04-21T01:23:41;3.92;;;2.03;;
68765;SDS011;55756;45.582;11.484;2023-04-21T01:26:07;4.63;;;2.00;;
68765;SDS011;55756;45.582;11.484;2023-04-21T01:28:35;3.72;;;1.70;;
68765;SDS011;55756;45.582;11.484;2023-04-21T01:31:02;3.28;;;1.60;;
68765;SDS011;55756;45.582;11.484;2023-04-21T01:33:29;3.22;;;1.50;;
68765;SDS011;55756;45.582;11.484;2023-04-21T01:35:56;2.78;;;1.60;;
68765;SDS011;55756;45.582;11.484;2023-04-21T01:38:22;2.85;;;1.60;;
68765;SDS011;55756;45.582;11.484;2023-04-21T01:40:49;4.25;;;1.63;;
68765;SDS011;55756;45.582;11.484;2023-04-21T01:43:17;3.83;;;1.50;;
68765;SDS011;55756;45.582;11.484;2023-04-21T01:45:44;3.22;;;1.58;;
68765;SDS011;55756;45.582;11.484;2023-04-21T01:48:11;2.80;;;1.60;;
68765;SDS011;55756;45.582;11.484;2023-04-21T01:50:38;4.38;;;1.67;;
68765;SDS011;55756;45.582;11.484;2023-04-21T01:53:04;3.88;;;1.70;;
68765;SDS011;55756;45.582;11.484;2023-04-21T01:55:31;4.40;;;1.70;;
68765;SDS011;55756;45.582;11.484;2023-04-21T01:57:57;3.10;;;1.60;;
68765;SDS011;55756;45.582;11.484;2023-04-21T02:00:23;4.45;;;1.60;;
68765;SDS011;55756;45.582;11.484;2023-04-21T02:02:50;2.65;;;1.40;;
68765;SDS011;55756;45.582;11.484;2023-04-21T02:05:17;3.42;;;1.50;;
68765;SDS011;55756;45.582;11.484;2023-04-21T02:07:43;3.47;;;1.40;;
68765;SDS011;55756;45.582;11.484;2023-04-21T02:10:09;5.32;;;1.50;;
68765;SDS011;55756;45.582;11.484;2023-04-21T02:12:36;3.53;;;1.40;;
68765;SDS011;55756;45.582;11.484;2023-04-21T02:15:02;2.67;;;1.40;;
68765;SDS011;55756;45.582;11.484;2023-04-21T02:17:28;2.25;;;1.30;;
68765;SDS011;55756;45.582;11.484;2023-04-21T02:19:55;3.10;;;1.42;;
68765;SDS011;55756;45.582;11.484;2023-04-21T02:22:21;3.65;;;1.50;;
68765;SDS011;55756;45.582;11.484;2023-04-21T02:24:48;2.03;;;1.30;;
68765;SDS011;55756;45.582;11.484;2023-04-21T02:27:14;2.80;;;1.40;;
68765;SDS011;55756;45.582;11.484;2023-04-21T02:29:40;3.53;;;1.38;;
68765;SDS011;55756;45.582;11.484;2023-04-21T02:32:06;2.60;;;1.40;;
68765;SDS011;55756;45.582;11.484;2023-04-21T02:34:32;3.67;;;1.88;;
68765;SDS011;55756;45.582;11.484;2023-04-21T02:36:58;3.33;;;1.73;;
68765;SDS011;55756;45.582;11.484;2023-04-21T02:39:24;4.53;;;1.90;;
68765;SDS011;55756;45.582;11.484;2023-04-21T02:41:50;3.65;;;2.00;;
68765;SDS011;55756;45.582;11.484;2023-04-21T02:44:16;3.30;;;1.75;;
68765;SDS011;55756;45.582;11.484;2023-04-21T02:46:43;4.35;;;1.90;;
68765;SDS011;55756;45.582;11.484;2023-04-21T02:49:09;3.80;;;1.92;;
68765;SDS011;55756;45.582;11.484;2023-04-21T02:51:35;5.57;;;2.00;;
68765;SDS011;55756;45.582;11.484;2023-04-21T02:54:01;5.28;;;1.98;;
68765;SDS011;55756;45.582;11.484;2023-04-21T02:56:27;4.38;;;1.80;;
68765;SDS011;55756;45.582;11.484;2023-04-21T02:58:53;4.72;;;2.13;;
68765;SDS011;55756;45.582;11.484;2023-04-21T03:01:19;4.90;;;2.10;;
68765;SDS011;55756;45.582;11.484;2023-04-21T03:03:44;5.30;;;2.20;;
68765;SDS011;55756;45.582;11.484;2023-04-21T03:06:10;4.32;;;2.10;;
68765;SDS011;55756;45.582;11.484;2023-04-21T03:08:37;6.65;;;2.22;;
68765;SDS011;55756;45.582;11.484;2023-04-21T03:11:04;3.78;;;1.92;;
68765;SDS011;55756;45.582;11.484;2023-04-21T03:13:30;12.80;;;6.55;;
68765;SDS011;55756;45.582;11.484;2023-04-21T03:15:56;12.13;;;7.05;;
68765;SDS011;55756;45.582;11.484;2023-04-21T03:18:21;9.38;;;5.22;;
68765;SDS011;55756;45.582;11.484;2023-04-21T03:20:49;10.77;;;6.30;;
68765;SDS011;55756;45.582;11.484;2023-04-21T03:23:14;78.65;;;45.78;;
68765;SDS011;55756;45.582;11.484;2023-04-21T03:25:41;112.00;;;62.58;;
68765;SDS011;55756;45.582;11.484;2023-04-21T03:28:07;179.23;;;99.93;;
68765;SDS011;55756;45.582;11.484;2023-04-21T03:30:33;159.48;;;86.47;;
68765;SDS011;55756;45.582;11.484;2023-04-21T03:32:59;79.63;;;46.25;;
68765;SDS011;55756;45.582;11.484;2023-04-21T03:35:25;109.15;;;63.67;;
68765;SDS011;55756;45.582;11.484;2023-04-21T03:37:51;106.22;;;60.88;;
68765;SDS011;55756;45.582;11.484;2023-04-21T03:40:17;74.07;;;43.70;;
68765;SDS011;55756;45.582;11.484;2023-04-21T03:42:43;42.65;;;26.92;;
68765;SDS011;55756;45.582;11.484;2023-04-21T03:45:09;52.47;;;29.33;;
68765;SDS011;55756;45.582;11.484;2023-04-21T03:47:35;64.97;;;38.13;;
68765;SDS011;55756;45.582;11.484;2023-04-21T03:50:04;88.13;;;52.53;;
68765;SDS011;55756;45.582;11.484;2023-04-21T03:52:31;41.72;;;27.67;;
68765;SDS011;55756;45.582;11.484;2023-04-21T03:54:56;29.58;;;21.27;;
68765;SDS011;55756;45.582;11.484;2023-04-21T03:57:22;17.70;;;12.15;;
68765;SDS011;55756;45.582;11.484;2023-04-21T03:59:48;9.48;;;5.95;;
68765;SDS011;55756;45.582;11.484;2023-04-21T04:02:14;6.68;;;3.53;;
68765;SDS011;55756;45.582;11.484;2023-04-21T04:04:39;5.82;;;2.80;;
68765;SDS011;55756;45.582;11.484;2023-04-21T04:07:05;6.32;;;2.47;;
68765;SDS011;55756;45.582;11.484;2023-04-21T04:09:32;7.00;;;2.40;;
68765;SDS011;55756;45.582;11.484;2023-04-21T04:11:58;4.63;;;2.40;;
68765;SDS011;55756;45.582;11.484;2023-04-21T04:14:24;6.65;;;2.22;;
68765;SDS011;55756;45.582;11.484;2023-04-21T04:16:50;5.32;;;2.30;;
68765;SDS011;55756;45.582;11.484;2023-04-21T04:19:15;4.70;;;2.42;;
68765;SDS011;55756;45.582;11.484;2023-04-21T04:21:41;5.97;;;2.47;;
68765;SDS011;55756;45.582;11.484;2023-04-21T04:24:07;5.90;;;2.75;;
68765;SDS011;55756;45.582;11.484;2023-04-21T04:26:35;6.55;;;2.83;;
68765;SDS011;55756;45.582;11.484;2023-04-21T04:29:02;7.43;;;3.28;;
68765;SDS011;55756;45.582;11.484;2023-04-21T04:31:34;7.55;;;3.22;;
68765;SDS011;55756;45.582;11.484;2023-04-21T04:34:00;8.07;;;3.10;;
68765;SDS011;55756;45.582;11.484;2023-04-21T04:36:26;6.30;;;3.17;;
68765;SDS011;55756;45.582;11.484;2023-04-21T11:13:42;8.55;;;4.82;;
68765;SDS011;55756;45.582;11.484;2023-04-21T11:16:07;9.77;;;4.95;;
68765;SDS011;55756;45.582;11.484;2023-04-21T11:18:40;8.55;;;3.90;;
68765;SDS011;55756;45.582;11.484;2023-04-21T11:21:08;8.25;;;4.13;;
68765;SDS011;55756;45.582;11.484;2023-04-21T11:23:39;9.60;;;4.78;;
68765;SDS011;55756;45.582;11.484;2023-04-21T11:26:06;8.30;;;4.00;;
68765;SDS011;55756;45.582;11.484;2023-04-21T11:28:32;10.63;;;4.88;;
68765;SDS011;55756;45.582;11.484;2023-04-21T11:30:58;9.02;;;5.00;;
68765;SDS011;55756;45.582;11.484;2023-04-21T11:33:23;11.32;;;5.85;;
68765;SDS011;55756;45.582;11.484;2023-04-21T11:35:52;10.65;;;5.20;;
68765;SDS011;55756;45.582;11.484;2023-04-21T11:38:23;9.82;;;4.70;;
68765;SDS011;55756;45.582;11.484;2023-04-21T11:40:49;9.10;;;5.20;;
68765;SDS011;55756;45.582;11.484;2023-04-21T11:43:15;9.27;;;5.20;;
68765;SDS011;55756;45.582;11.484;2023-04-21T11:45:41;8.32;;;4.68;;
68765;SDS011;55756;45.582;11.484;2023-04-21T11:48:14;8.25;;;4.50;;
68765;SDS011;55756;45.582;11.484;2023-04-21T11:50:45;8.38;;;4.10;;
68765;SDS011;55756;45.582;11.484;2023-04-21T11:53:15;9.52;;;4.80;;
68765;SDS011;55756;45.582;11.484;2023-04-21T11:55:44;11.25;;;4.80;;
68765;SDS011;55756;45.582;11.484;2023-04-21T11:58:11;8.85;;;4.70;;
68765;SDS011;55756;45.582;11.484;2023-04-21T12:23:03;7.32;;;4.03;;
68765;SDS011;55756;45.582;11.484;2023-04-21T12:25:28;7.60;;;3.78;;
68765;SDS011;55756;45.582;11.484;2023-04-21T12:27:57;7.65;;;3.80;;
68765;SDS011;55756;45.582;11.484;2023-04-21T12:30:23;8.70;;;4.20;;
68765;SDS011;55756;45.582;11.484;2023-04-21T12:32:50;7.47;;;3.58;;
68765;SDS011;55756;45.582;11.484;2023-04-21T12:35:18;7.05;;;3.80;;
68765;SDS011;55756;45.582;11.484;2023-04-21T12:37:44;7.53;;;3.53;;
68765;SDS011;55756;45.582;11.484;2023-04-21T16:29:19;5.35;;;2.75;;
68765;SDS011;55756;45.582;11.484;2023-04-21T16:32:43;5.47;;;2.67;;
68765;SDS011;55756;45.582;11.484;2023-04-21T16:35:12;5.15;;;2.67;;
68765;SDS011;55756;45.582;11.484;2023-04-21T16:37:44;5.97;;;2.90;;
68765;SDS011;55756;45.582;11.484;2023-04-21T16:40:20;5.78;;;2.58;;
68765;SDS011;55756;45.582;11.484;2023-04-21T16:42:49;4.88;;;2.60;;
68765;SDS011;55756;45.582;11.484;2023-04-21T16:45:14;5.80;;;2.63;;
68765;SDS011;55756;45.582;11.484;2023-04-21T16:47:42;5.32;;;2.60;;
68765;SDS011;55756;45.582;11.484;2023-04-21T16:50:07;7.97;;;2.85;;
68765;SDS011;55756;45.582;11.484;2023-04-21T16:52:33;6.65;;;3.00;;
68765;SDS011;55756;45.582;11.484;2023-04-21T16:54:59;5.95;;;2.85;;
68765;SDS011;55756;45.582;11.484;2023-04-21T16:57:26;6.55;;;2.95;;
68765;SDS011;55756;45.582;11.484;2023-04-21T16:59:55;5.32;;;2.72;;
68765;SDS011;55756;45.582;11.484;2023-04-21T17:02:22;5.72;;;2.50;;
68765;SDS011;55756;45.582;11.484;2023-04-21T17:04:48;6.40;;;2.85;;
68765;SDS011;55756;45.582;11.484;2023-04-21T17:07:19;5.82;;;2.88;;
68765;SDS011;55756;45.582;11.484;2023-04-21T17:10:02;5.72;;;2.78;;
68765;SDS011;55756;45.582;11.484;2023-04-21T17:12:28;6.72;;;2.80;;
68765;SDS011;55756;45.582;11.484;2023-04-21T17:14:53;6.75;;;2.70;;
68765;SDS011;55756;45.582;11.484;2023-04-21T17:17:19;5.90;;;2.65;;
68765;SDS011;55756;45.582;11.484;2023-04-21T17:19:46;5.40;;;2.70;;
68765;SDS011;55756;45.582;11.484;2023-04-21T17:22:12;8.48;;;3.13;;
68765;SDS011;55756;45.582;11.484;2023-04-21T17:24:38;6.13;;;2.92;;
68765;SDS011;55756;45.582;11.484;2023-04-21T17:27:03;6.65;;;2.90;;
68765;SDS011;55756;45.582;11.484;2023-04-21T17:29:29;6.28;;;2.90;;
68765;SDS011;55756;45.582;11.484;2023-04-21T17:31:55;6.88;;;2.80;;
68765;SDS011;55756;45.582;11.484;2023-04-21T17:34:21;6.53;;;2.88;;
68765;SDS011;55756;45.582;11.484;2023-04-21T17:36:47;6.25;;;2.70;;
68765;SDS011;55756;45.582;11.484;2023-04-21T17:39:13;7.78;;;2.90;;
68765;SDS011;55756;45.582;11.484;2023-04-21T17:41:39;6.75;;;3.13;;
68765;SDS011;55756;45.582;11.484;2023-04-21T17:44:06;6.40;;;3.17;;
68765;SDS011;55756;45.582;11.484;2023-04-21T17:46:32;5.95;;;3.00;;
68765;SDS011;55756;45.582;11.484;2023-04-21T17:48:58;6.70;;;3.30;;
68765;SDS011;55756;45.582;11.484;2023-04-21T17:51:23;6.90;;;3.40;;
68765;SDS011;55756;45.582;11.484;2023-04-21T17:53:50;7.13;;;3.42;;
68765;SDS011;55756;45.582;11.484;2023-04-21T17:56:16;8.30;;;3.50;;
68765;SDS011;55756;45.582;11.484;2023-04-21T17:58:42;6.68;;;3.47;;
68765;SDS011;55756;45.582;11.484;2023-04-21T18:01:08;6.95;;;3.58;;
68765;SDS011;55756;45.582;11.484;2023-04-21T18:03:35;7.15;;;3.50;;
68765;SDS011;55756;45.582;11.484;2023-04-21T18:06:01;9.63;;;3.40;;
68765;SDS011;55756;45.582;11.484;2023-04-21T18:08:27;6.65;;;3.42;;
68765;SDS011;55756;45.582;11.484;2023-04-21T18:10:53;6.63;;;3.50;;
68765;SDS011;55756;45.582;11.484;2023-04-21T18:13:19;8.93;;;3.70;;
68765;SDS011;55756;45.582;11.484;2023-04-21T18:15:45;7.00;;;3.50;;
68765;SDS011;55756;45.582;11.484;2023-04-21T18:18:11;9.05;;;3.53;;
68765;SDS011;55756;45.582;11.484;2023-04-21T18:20:36;7.97;;;3.80;;
68765;SDS011;55756;45.582;11.484;2023-04-21T18:23:03;7.72;;;3.33;;
68765;SDS011;55756;45.582;11.484;2023-04-21T18:25:29;9.02;;;3.60;;
68765;SDS011;55756;45.582;11.484;2023-04-21T18:27:55;7.18;;;3.80;;
68765;SDS011;55756;45.582;11.484;2023-04-21T18:30:20;9.48;;;4.35;;
68765;SDS011;55756;45.582;11.484;2023-04-21T18:32:46;10.30;;;4.20;;
68765;SDS011;55756;45.582;11.484;2023-04-21T18:35:12;7.50;;;3.90;;
68765;SDS011;55756;45.582;11.484;2023-04-21T18:37:38;8.98;;;4.28;;
68765;SDS011;55756;45.582;11.484;2023-04-21T18:40:03;6.72;;;3.97;;
68765;SDS011;55756;45.582;11.484;2023-04-21T18:42:30;7.25;;;3.80;;
68765;SDS011;55756;45.582;11.484;2023-04-21T18:44:55;7.80;;;3.70;;
68765;SDS011;55756;45.582;11.484;2023-04-21T18:47:21;7.57;;;4.18;;
68765;SDS011;55756;45.582;11.484;2023-04-21T18:49:47;8.80;;;4.50;;
68765;SDS011;55756;45.582;11.484;2023-04-21T18:52:13;10.07;;;4.70;;
68765;SDS011;55756;45.582;11.484;2023-04-21T18:54:39;8.70;;;4.38;;
68765;SDS011;55756;45.582;11.484;2023-04-21T18:57:05;9.50;;;5.05;;
68765;SDS011;55756;45.582;11.484;2023-04-21T18:59:32;8.73;;;4.93;;
68765;SDS011;55756;45.582;11.484;2023-04-21T19:01:59;9.75;;;5.60;;
68765;SDS011;55756;45.582;11.484;2023-04-21T19:04:25;11.10;;;5.88;;
68765;SDS011;55756;45.582;11.484;2023-04-21T19:06:51;11.93;;;6.60;;
68765;SDS011;55756;45.582;11.484;2023-04-21T19:09:17;12.07;;;6.65;;
68765;SDS011;55756;45.582;11.484;2023-04-21T19:11:46;12.95;;;7.40;;
68765;SDS011;55756;45.582;11.484;2023-04-21T19:14:13;12.25;;;6.60;;
68765;SDS011;55756;45.582;11.484;2023-04-21T19:16:39;12.35;;;7.00;;
68765;SDS011;55756;45.582;11.484;2023-04-21T19:19:04;11.95;;;6.97;;
68765;SDS011;55756;45.582;11.484;2023-04-21T19:21:31;12.05;;;6.88;;
68765;SDS011;55756;45.582;11.484;2023-04-21T19:23:57;11.95;;;6.93;;
68765;SDS011;55756;45.582;11.484;2023-04-21T19:26:24;11.73;;;7.20;;
68765;SDS011;55756;45.582;11.484;2023-04-21T19:28:50;13.02;;;7.10;;
68765;SDS011;55756;45.582;11.484;2023-04-21T19:31:18;10.63;;;6.70;;
68765;SDS011;55756;45.582;11.484;2023-04-21T19:33:45;10.82;;;6.97;;
68765;SDS011;55756;45.582;11.484;2023-04-21T19:36:12;11.25;;;6.72;;
68765;SDS011;55756;45.582;11.484;2023-04-21T19:38:38;10.38;;;6.82;;
68765;SDS011;55756;45.582;11.484;2023-04-21T19:41:05;11.65;;;7.10;;
68765;SDS011;55756;45.582;11.484;2023-04-21T19:43:30;14.13;;;7.53;;
68765;SDS011;55756;45.582;11.484;2023-04-21T19:45:56;12.40;;;7.38;;
68765;SDS011;55756;45.582;11.484;2023-04-21T19:48:22;12.10;;;7.13;;
68765;SDS011;55756;45.582;11.484;2023-04-21T19:50:48;10.75;;;7.30;;
68765;SDS011;55756;45.582;11.484;2023-04-21T19:53:17;11.70;;;6.80;;
68765;SDS011;55756;45.582;11.484;2023-04-21T19:55:49;16.08;;;6.65;;
68765;SDS011;55756;45.582;11.484;2023-04-21T19:58:15;11.52;;;7.10;;
68765;SDS011;55756;45.582;11.484;2023-04-21T20:00:40;12.07;;;7.03;;
68765;SDS011;55756;45.582;11.484;2023-04-21T20:03:07;16.60;;;7.05;;
68765;SDS011;55756;45.582;11.484;2023-04-21T20:05:37;11.18;;;6.85;;
68765;SDS011;55756;45.582;11.484;2023-04-21T20:10:28;11.82;;;7.00;;
68765;SDS011;55756;45.582;11.484;2023-04-21T20:12:54;13.07;;;7.25;;
68765;SDS011;55756;45.582;11.484;2023-04-21T20:15:20;13.98;;;7.30;;
68765;SDS011;55756;45.582;11.484;2023-04-21T20:17:46;12.45;;;7.72;;
68765;SDS011;55756;45.582;11.484;2023-04-21T20:20:13;12.02;;;7.93;;
68765;SDS011;55756;45.582;11.484;2023-04-21T20:22:40;12.07;;;7.72;;
68765;SDS011;55756;45.582;11.484;2023-04-21T20:25:06;11.82;;;7.90;;
68765;SDS011;55756;45.582;11.484;2023-04-21T20:27:35;14.20;;;7.82;;
68765;SDS011;55756;45.582;11.484;2023-04-21T20:30:04;13.40;;;7.97;;
68765;SDS011;55756;45.582;11.484;2023-04-21T20:32:36;13.30;;;7.60;;
68765;SDS011;55756;45.582;11.484;2023-04-21T20:35:01;15.85;;;8.48;;
68765;SDS011;55756;45.582;11.484;2023-04-21T20:37:27;12.57;;;8.20;;
68765;SDS011;55756;45.582;11.484;2023-04-21T20:39:53;15.00;;;8.50;;
68765;SDS011;55756;45.582;11.484;2023-04-21T20:42:21;12.73;;;7.90;;
68765;SDS011;55756;45.582;11.484;2023-04-21T20:44:47;12.43;;;8.23;;
68765;SDS011;55756;45.582;11.484;2023-04-21T20:47:12;13.77;;;8.23;;
68765;SDS011;55756;45.582;11.484;2023-04-21T20:49:38;12.00;;;7.88;;
68765;SDS011;55756;45.582;11.484;2023-04-21T20:52:04;13.98;;;8.30;;
68765;SDS011;55756;45.582;11.484;2023-04-21T20:54:30;14.45;;;7.72;;
68765;SDS011;55756;45.582;11.484;2023-04-21T20:57:01;13.57;;;7.88;;
68765;SDS011;55756;45.582;11.484;2023-04-21T20:59:31;11.35;;;7.38;;
68765;SDS011;55756;45.582;11.484;2023-04-21T21:01:57;13.20;;;7.88;;
68765;SDS011;55756;45.582;11.484;2023-04-21T21:04:22;12.35;;;7.70;;
68765;SDS011;55756;45.582;11.484;2023-04-21T21:06:48;14.98;;;7.85;;
68765;SDS011;55756;45.582;11.484;2023-04-21T21:09:14;12.35;;;8.05;;
68765;SDS011;55756;45.582;11.484;2023-04-21T21:11:40;13.80;;;7.38;;
68765;SDS011;55756;45.582;11.484;2023-04-21T21:14:06;13.68;;;7.85;;
68765;SDS011;55756;45.582;11.484;2023-04-21T21:16:32;12.23;;;7.72;;
68765;SDS011;55756;45.582;11.484;2023-04-21T21:18:57;13.38;;;8.20;;
68765;SDS011;55756;45.582;11.484;2023-04-21T21:21:23;12.75;;;7.75;;
68765;SDS011;55756;45.582;11.484;2023-04-21T21:23:49;11.45;;;7.60;;
68765;SDS011;55756;45.582;11.484;2023-04-21T21:26:15;14.88;;;7.78;;
68765;SDS011;55756;45.582;11.484;2023-04-21T21:28:41;14.45;;;8.15;;
68765;SDS011;55756;45.582;11.484;2023-04-21T21:31:06;12.85;;;7.57;;
68765;SDS011;55756;45.582;11.484;2023-04-21T21:33:32;11.73;;;7.10;;
68765;SDS011;55756;45.582;11.484;2023-04-21T21:35:58;12.75;;;7.70;;
68765;SDS011;55756;45.582;11.484;2023-04-21T21:38:24;11.90;;;7.75;;
68765;SDS011;55756;45.582;11.484;2023-04-21T21:40:49;13.27;;;7.60;;
68765;SDS011;55756;45.582;11.484;2023-04-21T21:43:15;11.85;;;7.35;;
68765;SDS011;55756;45.582;11.484;2023-04-21T21:45:41;13.18;;;7.38;;
68765;SDS011;55756;45.582;11.484;2023-04-21T21:48:06;12.07;;;7.90;;
68765;SDS011;55756;45.582;11.484;2023-04-21T21:50:32;14.15;;;8.05;;
68765;SDS011;55756;45.582;11.484;2023-04-21T21:52:58;13.63;;;7.90;;
68765;SDS011;55756;45.582;11.484;2023-04-21T21:55:24;12.18;;;7.72;;
68765;SDS011;55756;45.582;11.484;2023-04-21T21:57:51;12.88;;;7.63;;
68765;SDS011;55756;45.582;11.484;2023-04-21T22:00:18;12.48;;;7.70;;
68765;SDS011;55756;45.582;11.484;2023-04-21T22:02:44;12.48;;;7.72;;
68765;SDS011;55756;45.582;11.484;2023-04-21T22:05:10;12.18;;;7.78;;
68765;SDS011;55756;45.582;11.484;2023-04-21T22:07:37;12.15;;;7.25;;
68765;SDS011;55756;45.582;11.484;2023-04-21T22:10:07;11.27;;;7.40;;
68765;SDS011;55756;45.582;11.484;2023-04-21T22:12:33;11.57;;;7.50;;
68765;SDS011;55756;45.582;11.484;2023-04-21T22:14:59;14.93;;;7.07;;
68765;SDS011;55756;45.582;11.484;2023-04-21T22:17:25;10.75;;;7.38;;
68765;SDS011;55756;45.582;11.484;2023-04-21T22:19:51;12.88;;;6.72;;
68765;SDS011;55756;45.582;11.484;2023-04-21T22:22:18;10.70;;;7.00;;
68765;SDS011;55756;45.582;11.484;2023-04-21T22:24:43;12.73;;;6.88;;
68765;SDS011;55756;45.582;11.484;2023-04-21T22:27:10;12.25;;;7.13;;
68765;SDS011;55756;45.582;11.484;2023-04-21T22:29:36;11.05;;;6.60;;
68765;SDS011;55756;45.582;11.484;2023-04-21T22:32:02;10.70;;;6.80;;
68765;SDS011;55756;45.582;11.484;2023-04-21T22:34:28;12.40;;;6.63;;
68765;SDS011;55756;45.582;11.484;2023-04-21T22:36:53;13.48;;;6.43;;
68765;SDS011;55756;45.582;11.484;2023-04-21T22:39:19;12.98;;;6.95;;
68765;SDS011;55756;45.582;11.484;2023-04-21T22:41:45;11.60;;;6.75;;
68765;SDS011;55756;45.582;11.484;2023-04-21T22:44:11;11.25;;;6.60;;
68765;SDS011;55756;45.582;11.484;2023-04-21T22:46:38;12.32;;;7.05;;
68765;SDS011;55756;45.582;11.484;2023-04-21T22:49:05;12.98;;;6.75;;
68765;SDS011;55756;45.582;11.484;2023-04-21T22:51:31;11.77;;;7.32;;
68765;SDS011;55756;45.582;11.484;2023-04-21T22:53:57;12.20;;;7.20;;
68765;SDS011;55756;45.582;11.484;2023-04-21T22:56:24;14.13;;;7.65;;
68765;SDS011;55756;45.582;11.484;2023-04-21T22:58:50;13.15;;;7.90;;
68765;SDS011;55756;45.582;11.484;2023-04-21T23:01:16;13.32;;;6.93;;
68765;SDS011;55756;45.582;11.484;2023-04-21T23:03:42;11.45;;;6.60;;
68765;SDS011;55756;45.582;11.484;2023-04-21T23:06:07;10.68;;;6.35;;
68765;SDS011;55756;45.582;11.484;2023-04-21T23:08:34;12.07;;;6.95;;
68765;SDS011;55756;45.582;11.484;2023-04-21T23:11:00;12.25;;;6.60;;
68765;SDS011;55756;45.582;11.484;2023-04-21T23:13:28;10.73;;;7.03;;
68765;SDS011;55756;45.582;11.484;2023-04-21T23:15:54;13.30;;;7.20;;
68765;SDS011;55756;45.582;11.484;2023-04-21T23:18:20;12.57;;;6.88;;
68765;SDS011;55756;45.582;11.484;2023-04-21T23:20:45;12.55;;;7.13;;
68765;SDS011;55756;45.582;11.484;2023-04-21T23:23:11;12.75;;;7.72;;
68765;SDS011;55756;45.582;11.484;2023-04-21T23:25:37;12.77;;;7.88;;
68765;SDS011;55756;45.582;11.484;2023-04-21T23:28:02;15.77;;;7.45;;
68765;SDS011;55756;45.582;11.484;2023-04-21T23:30:28;13.32;;;7.65;;
68765;SDS011;55756;45.582;11.484;2023-04-21T23:32:54;12.18;;;7.15;;
68765;SDS011;55756;45.582;11.484;2023-04-21T23:35:20;11.25;;;6.80;;
68765;SDS011;55756;45.582;11.484;2023-04-21T23:37:46;12.68;;;7.20;;
68765;SDS011;55756;45.582;11.484;2023-04-21T23:40:12;15.30;;;7.38;;
68765;SDS011;55756;45.582;11.484;2023-04-21T23:42:38;13.20;;;7.15;;
68765;SDS011;55756;45.582;11.484;2023-04-21T23:45:05;12.88;;;7.28;;
68765;SDS011;55756;45.582;11.484;2023-04-21T23:47:31;12.10;;;7.13;;
68765;SDS011;55756;45.582;11.484;2023-04-21T23:49:57;11.32;;;6.80;;
68765;SDS011;55756;45.582;11.484;2023-04-21T23:52:23;10.88;;;6.85;;
68765;SDS011;55756;45.582;11.484;2023-04-21T23:54:49;11.70;;;7.15;;
68765;SDS011;55756;45.582;11.484;2023-04-21T23:57:15;13.35;;;6.80;;
68765;SDS011;55756;45.582;11.484;2023-04-21T23:59:41;11.98;;;7.00;;
